Weather at Philadelphia International Airport

Public forecast

Using degrees Fahrenheit for public forecast. Weather courtesy of forecast.io.

Current aviation weather report (METAR) for Philadelphia International Airport

Retrieved 2022/05/23 06:54 UTC (42 minutes ago):

KPHL 230654Z 36013KT 10SM FEW027 BKN140 OVC200 19/13 A3009 RMK AO2 SLP190 T01940133

Aviation forecast (TAF) for Philadelphia International Airport

Retrieved 2022/05/23 06:22 UTC (1 hour ago):

TAF KPHL 230520Z 2306/2412 35006KT P6SM -SHRA BKN060 OVC100 FM230800 34010KT P6SM BKN200 FM231200 01012KT P6SM BKN200 FM232100 33005KT P6SM SCT100 FM232300 VRB04KT P6SM BKN100